Amalia, New Mexico
Current Conditions -  °F | °C
As of 11:55 PM on Sunday 23 Nov 2014 (Local Time) from KSKX Reporting Station
Clear Clear  
Wind Chill: -8°   Ceiling: Unl
Heat Index:   Visibility: 10mi
Dew Point:   Wind: 10mph
Humidity: 79%   Direction: 320°NW
Pressure: 30.02"   Gusts: NA
Location:  36.94°N, 105.45°W
Report Text: KSKX 240655Z AUTO 32009KT 10SM CLR M14/M17 A3002 RMK AO1
Loading
Personal Weather Stations






























Interactive Weather Map New forecast layout! Learn more

10-Day Weather Forecast

Advertisements
Track Severe Weather on mobile